sensor_id;sensor_type;location;lat;lon;timestamp;pressure;altitude;pressure_sealevel;temperature;humidity
9421;BME280;4749;51.398;5.466;2023-11-18T00:00:09;102242.97;;;4.63;100.00
9421;BME280;4749;51.398;5.466;2023-11-18T00:02:39;102242.22;;;4.65;100.00
9421;BME280;4749;51.398;5.466;2023-11-18T00:05:11;102248.38;;;4.67;100.00
9421;BME280;4749;51.398;5.466;2023-11-18T00:07:38;102235.44;;;4.69;100.00
9421;BME280;4749;51.398;5.466;2023-11-18T00:10:06;102237.22;;;4.70;100.00
9421;BME280;4749;51.398;5.466;2023-11-18T00:12:36;102237.31;;;4.71;100.00
9421;BME280;4749;51.398;5.466;2023-11-18T00:15:04;102240.88;;;4.73;100.00
9421;BME280;4749;51.398;5.466;2023-11-18T00:17:32;102243.50;;;4.73;100.00
9421;BME280;4749;51.398;5.466;2023-11-18T00:19:59;102245.28;;;4.74;100.00
9421;BME280;4749;51.398;5.466;2023-11-18T00:22:26;102246.16;;;4.75;100.00
9421;BME280;4749;51.398;5.466;2023-11-18T00:24:55;102242.66;;;4.74;100.00
9421;BME280;4749;51.398;5.466;2023-11-18T00:27:22;102240.94;;;4.75;100.00
9421;BME280;4749;51.398;5.466;2023-11-18T00:29:49;102240.94;;;4.75;100.00
9421;BME280;4749;51.398;5.466;2023-11-18T00:32:16;102239.16;;;4.74;100.00
9421;BME280;4749;51.398;5.466;2023-11-18T00:34:44;102241.72;;;4.72;100.00
9421;BME280;4749;51.398;5.466;2023-11-18T00:37:11;102239.94;;;4.71;100.00
9421;BME280;4749;51.398;5.466;2023-11-18T00:39:39;102236.31;;;4.69;100.00
9421;BME280;4749;51.398;5.466;2023-11-18T00:42:06;102236.25;;;4.68;100.00
9421;BME280;4749;51.398;5.466;2023-11-18T00:44:33;102234.47;;;4.67;100.00
9421;BME280;4749;51.398;5.466;2023-11-18T00:47:01;102237.00;;;4.65;100.00
9421;BME280;4749;51.398;5.466;2023-11-18T00:49:29;102222.94;;;4.62;100.00
9421;BME280;4749;51.398;5.466;2023-11-18T00:51:57;102227.19;;;4.60;100.00
9421;BME280;4749;51.398;5.466;2023-11-18T00:54:24;102222.72;;;4.57;100.00
9421;BME280;4749;51.398;5.466;2023-11-18T00:56:51;102225.19;;;4.54;100.00
9421;BME280;4749;51.398;5.466;2023-11-18T00:59:18;102228.44;;;4.50;100.00
9421;BME280;4749;51.398;5.466;2023-11-18T01:01:46;102223.97;;;4.47;100.00
9421;BME280;4749;51.398;5.466;2023-11-18T01:04:13;102220.31;;;4.44;100.00
9421;BME280;4749;51.398;5.466;2023-11-18T01:06:41;102236.75;;;4.43;100.00
9421;BME280;4749;51.398;5.466;2023-11-18T01:09:09;102229.63;;;4.39;100.00
9421;BME280;4749;51.398;5.466;2023-11-18T01:11:36;102239.97;;;4.37;100.00
9421;BME280;4749;51.398;5.466;2023-11-18T01:14:03;102236.56;;;4.38;100.00
9421;BME280;4749;51.398;5.466;2023-11-18T01:16:31;102243.53;;;4.39;100.00
9421;BME280;4749;51.398;5.466;2023-11-18T01:18:58;102241.84;;;4.40;100.00
9421;BME280;4749;51.398;5.466;2023-11-18T01:21:26;102247.19;;;4.43;100.00
9421;BME280;4749;51.398;5.466;2023-11-18T01:23:54;102241.16;;;4.44;100.00
9421;BME280;4749;51.398;5.466;2023-11-18T01:26:22;102244.00;;;4.48;100.00
9421;BME280;4749;51.398;5.466;2023-11-18T01:28:50;102259.84;;;4.53;100.00
9421;BME280;4749;51.398;5.466;2023-11-18T01:31:17;102254.94;;;4.59;100.00
9421;BME280;4749;51.398;5.466;2023-11-18T01:33:44;102250.78;;;4.63;100.00
9421;BME280;4749;51.398;5.466;2023-11-18T01:36:13;102256.28;;;4.69;100.00
9421;BME280;4749;51.398;5.466;2023-11-18T01:38:40;102261.72;;;4.73;100.00
9421;BME280;4749;51.398;5.466;2023-11-18T01:41:08;102257.63;;;4.78;100.00
9421;BME280;4749;51.398;5.466;2023-11-18T01:43:36;102255.19;;;4.82;100.00
9421;BME280;4749;51.398;5.466;2023-11-18T01:46:07;102257.09;;;4.86;100.00
9421;BME280;4749;51.398;5.466;2023-11-18T01:48:38;102252.06;;;4.89;100.00
9421;BME280;4749;51.398;5.466;2023-11-18T01:51:07;102250.47;;;4.92;100.00
9421;BME280;4749;51.398;5.466;2023-11-18T01:53:38;102255.81;;;4.95;100.00
9421;BME280;4749;51.398;5.466;2023-11-18T01:56:07;102262.97;;;4.99;100.00
9421;BME280;4749;51.398;5.466;2023-11-18T01:58:36;102257.06;;;5.03;100.00
9421;BME280;4749;51.398;5.466;2023-11-18T02:01:04;102251.06;;;5.04;100.00
9421;BME280;4749;51.398;5.466;2023-11-18T02:03:35;102263.41;;;5.08;100.00
9421;BME280;4749;51.398;5.466;2023-11-18T02:06:04;102260.94;;;5.12;100.00
9421;BME280;4749;51.398;5.466;2023-11-18T02:08:33;102254.13;;;5.14;100.00
9421;BME280;4749;51.398;5.466;2023-11-18T02:14:13;102242.03;;;5.16;100.00
9421;BME280;4749;51.398;5.466;2023-11-18T02:16:44;102243.88;;;5.18;100.00
9421;BME280;4749;51.398;5.466;2023-11-18T02:19:20;102240.44;;;5.19;100.00
9421;BME280;4749;51.398;5.466;2023-11-18T02:21:49;102253.56;;;5.21;100.00
9421;BME280;4749;51.398;5.466;2023-11-18T02:24:28;102247.53;;;5.22;100.00
9421;BME280;4749;51.398;5.466;2023-11-18T02:26:58;102261.53;;;5.24;100.00
9421;BME280;4749;51.398;5.466;2023-11-18T02:29:33;102248.50;;;5.24;100.00
9421;BME280;4749;51.398;5.466;2023-11-18T02:32:33;102262.50;;;5.26;100.00
9421;BME280;4749;51.398;5.466;2023-11-18T02:35:30;102275.53;;;5.26;100.00
9421;BME280;4749;51.398;5.466;2023-11-18T02:38:02;102269.38;;;5.24;100.00
9421;BME280;4749;51.398;5.466;2023-11-18T02:40:39;102266.88;;;5.27;100.00
9421;BME280;4749;51.398;5.466;2023-11-18T02:43:08;102263.44;;;5.28;100.00
9421;BME280;4749;51.398;5.466;2023-11-18T02:45:37;102250.41;;;5.28;100.00
9421;BME280;4749;51.398;5.466;2023-11-18T02:48:05;102246.03;;;5.27;100.00
9421;BME280;4749;51.398;5.466;2023-11-18T02:50:33;102250.47;;;5.29;100.00
9421;BME280;4749;51.398;5.466;2023-11-18T02:53:02;102246.09;;;5.28;100.00
9421;BME280;4749;51.398;5.466;2023-11-18T02:55:29;102237.38;;;5.28;100.00
9421;BME280;4749;51.398;5.466;2023-11-18T02:57:57;102230.38;;;5.27;100.00
9421;BME280;4749;51.398;5.466;2023-11-18T03:00:24;102233.81;;;5.26;100.00
9421;BME280;4749;51.398;5.466;2023-11-18T03:02:52;102225.09;;;5.25;100.00
9421;BME280;4749;51.398;5.466;2023-11-18T03:05:20;102220.72;;;5.24;100.00
9421;BME280;4749;51.398;5.466;2023-11-18T03:07:48;102215.44;;;5.23;100.00
9421;BME280;4749;51.398;5.466;2023-11-18T03:10:21;102211.03;;;5.22;100.00
9421;BME280;4749;51.398;5.466;2023-11-18T03:12:51;102200.44;;;5.19;100.00
9421;BME280;4749;51.398;5.466;2023-11-18T03:15:21;102209.09;;;5.18;100.00
9421;BME280;4749;51.398;5.466;2023-11-18T03:17:50;102204.72;;;5.17;100.00
9421;BME280;4749;51.398;5.466;2023-11-18T03:20:21;102199.56;;;5.18;100.00
9421;BME280;4749;51.398;5.466;2023-11-18T03:22:50;102208.34;;;5.20;100.00
9421;BME280;4749;51.398;5.466;2023-11-18T03:25:18;102205.72;;;5.20;100.00
9421;BME280;4749;51.398;5.466;2023-11-18T03:27:49;102213.56;;;5.20;100.00
9421;BME280;4749;51.398;5.466;2023-11-18T03:30:16;102210.94;;;5.20;100.00
9421;BME280;4749;51.398;5.466;2023-11-18T03:32:44;102217.03;;;5.21;100.00
9421;BME280;4749;51.398;5.466;2023-11-18T03:35:13;102204.94;;;5.21;100.00
9421;BME280;4749;51.398;5.466;2023-11-18T03:37:41;102201.50;;;5.22;100.00
9421;BME280;4749;51.398;5.466;2023-11-18T03:40:12;102198.97;;;5.24;100.00
9421;BME280;4749;51.398;5.466;2023-11-18T03:42:41;102197.31;;;5.26;100.00
9421;BME280;4749;51.398;5.466;2023-11-18T03:45:09;102194.03;;;5.30;100.00
9421;BME280;4749;51.398;5.466;2023-11-18T03:47:37;102182.78;;;5.31;100.00
9421;BME280;4749;51.398;5.466;2023-11-18T03:50:05;102181.13;;;5.33;100.00
9421;BME280;4749;51.398;5.466;2023-11-18T03:52:36;102185.50;;;5.34;100.00
9421;BME280;4749;51.398;5.466;2023-11-18T03:55:05;102172.53;;;5.35;100.00
9421;BME280;4749;51.398;5.466;2023-11-18T03:57:33;102173.34;;;5.34;100.00
9421;BME280;4749;51.398;5.466;2023-11-18T04:00:00;102176.78;;;5.33;100.00
9421;BME280;4749;51.398;5.466;2023-11-18T04:02:27;102160.31;;;5.34;100.00
9421;BME280;4749;51.398;5.466;2023-11-18T04:04:56;102158.59;;;5.35;100.00
9421;BME280;4749;51.398;5.466;2023-11-18T04:07:23;102151.59;;;5.34;100.00
9421;BME280;4749;51.398;5.466;2023-11-18T04:09:51;102150.78;;;5.35;100.00
9421;BME280;4749;51.398;5.466;2023-11-18T04:12:18;102147.28;;;5.34;100.00
9421;BME280;4749;51.398;5.466;2023-11-18T04:14:45;102143.84;;;5.35;100.00
9421;BME280;4749;51.398;5.466;2023-11-18T04:17:13;102150.00;;;5.37;100.00
9421;BME280;4749;51.398;5.466;2023-11-18T04:19:40;102149.28;;;5.40;100.00
9421;BME280;4749;51.398;5.466;2023-11-18T04:22:08;102147.63;;;5.42;100.00
9421;BME280;4749;51.398;5.466;2023-11-18T04:24:36;102144.19;;;5.43;100.00
9421;BME280;4749;51.398;5.466;2023-11-18T04:27:03;102145.97;;;5.44;100.00
9421;BME280;4749;51.398;5.466;2023-11-18T04:29:30;102144.41;;;5.48;100.00
9421;BME280;4749;51.398;5.466;2023-11-18T04:31:58;102139.31;;;5.51;100.00
9421;BME280;4749;51.398;5.466;2023-11-18T04:34:27;102137.66;;;5.53;100.00
9421;BME280;4749;51.398;5.466;2023-11-18T04:36:54;102133.31;;;5.53;100.00
9421;BME280;4749;51.398;5.466;2023-11-18T04:39:22;102130.78;;;5.55;100.00
9421;BME280;4749;51.398;5.466;2023-11-18T04:41:49;102128.25;;;5.56;100.00
9421;BME280;4749;51.398;5.466;2023-11-18T04:44:17;102124.81;;;5.57;100.00
9421;BME280;4749;51.398;5.466;2023-11-18T04:46:44;102119.66;;;5.59;100.00
9421;BME280;4749;51.398;5.466;2023-11-18T04:49:12;102124.94;;;5.60;100.00
9421;BME280;4749;51.398;5.466;2023-11-18T04:51:39;102119.78;;;5.62;100.00
9421;BME280;4749;51.398;5.466;2023-11-18T04:54:07;102116.34;;;5.63;100.00
9421;BME280;4749;51.398;5.466;2023-11-18T04:56:35;102110.31;;;5.64;100.00
9421;BME280;4749;51.398;5.466;2023-11-18T04:59:03;102101.66;;;5.65;100.00
9421;BME280;4749;51.398;5.466;2023-11-18T05:01:33;102106.94;;;5.67;100.00
9421;BME280;4749;51.398;5.466;2023-11-18T05:04:01;102096.56;;;5.68;100.00
9421;BME280;4749;51.398;5.466;2023-11-18T05:06:28;102099.28;;;5.71;100.00
9421;BME280;4749;51.398;5.466;2023-11-18T05:08:56;102096.78;;;5.73;100.00
9421;BME280;4749;51.398;5.466;2023-11-18T05:11:23;102096.84;;;5.74;100.00
9421;BME280;4749;51.398;5.466;2023-11-18T05:13:50;102082.00;;;5.73;100.00
9421;BME280;4749;51.398;5.466;2023-11-18T05:16:18;102076.91;;;5.76;100.00
9421;BME280;4749;51.398;5.466;2023-11-18T05:18:45;102069.09;;;5.76;100.00
9421;BME280;4749;51.398;5.466;2023-11-18T05:21:13;102064.75;;;5.77;100.00
9421;BME280;4749;51.398;5.466;2023-11-18T05:23:40;102066.47;;;5.76;100.00
9421;BME280;4749;51.398;5.466;2023-11-18T05:26:07;102067.34;;;5.77;100.00
9421;BME280;4749;51.398;5.466;2023-11-18T05:28:36;102064.81;;;5.78;100.00
9421;BME280;4749;51.398;5.466;2023-11-18T05:31:03;102066.59;;;5.79;100.00
9421;BME280;4749;51.398;5.466;2023-11-18T05:33:32;102062.25;;;5.80;100.00
9421;BME280;4749;51.398;5.466;2023-11-18T05:36:02;102070.09;;;5.80;100.00
9421;BME280;4749;51.398;5.466;2023-11-18T05:38:32;102071.06;;;5.82;100.00
9421;BME280;4749;51.398;5.466;2023-11-18T05:41:02;102067.63;;;5.83;100.00
9421;BME280;4749;51.398;5.466;2023-11-18T05:43:32;102058.97;;;5.84;100.00
9421;BME280;4749;51.398;5.466;2023-11-18T05:46:06;102051.13;;;5.84;100.00
9421;BME280;4749;51.398;5.466;2023-11-18T05:48:43;102051.13;;;5.84;100.00
9421;BME280;4749;51.398;5.466;2023-11-18T05:51:11;102048.56;;;5.85;100.00
9421;BME280;4749;51.398;5.466;2023-11-18T05:53:43;102052.06;;;5.86;100.00
9421;BME280;4749;51.398;5.466;2023-11-18T05:56:13;102047.75;;;5.86;100.00
9421;BME280;4749;51.398;5.466;2023-11-18T05:58:41;102039.97;;;5.88;100.00
9421;BME280;4749;51.398;5.466;2023-11-18T06:01:10;102047.00;;;5.89;100.00
9421;BME280;4749;51.398;5.466;2023-11-18T06:03:39;102047.00;;;5.89;100.00
9421;BME280;4749;51.398;5.466;2023-11-18T06:06:13;102036.66;;;5.90;100.00
9421;BME280;4749;51.398;5.466;2023-11-18T06:08:41;102034.94;;;5.91;100.00
9421;BME280;4749;51.398;5.466;2023-11-18T06:11:13;102023.66;;;5.92;100.00
9421;BME280;4749;51.398;5.466;2023-11-18T06:13:52;102003.66;;;5.92;100.00
9421;BME280;4749;51.398;5.466;2023-11-18T06:16:21;101999.31;;;5.93;100.00
9421;BME280;4749;51.398;5.466;2023-11-18T06:18:52;102007.16;;;5.93;100.00
9421;BME280;4749;51.398;5.466;2023-11-18T06:21:22;102016.78;;;5.94;100.00
9421;BME280;4749;51.398;5.466;2023-11-18T06:23:55;102035.09;;;5.96;100.00
9421;BME280;4749;51.398;5.466;2023-11-18T06:26:23;102037.78;;;5.97;100.00
9421;BME280;4749;51.398;5.466;2023-11-18T06:28:55;102029.03;;;5.97;100.00
9421;BME280;4749;51.398;5.466;2023-11-18T06:31:23;102022.19;;;5.99;100.00
9421;BME280;4749;51.398;5.466;2023-11-18T06:33:51;102023.97;;;6.00;100.00
9421;BME280;4749;51.398;5.466;2023-11-18T06:36:19;102017.97;;;6.02;100.00
9421;BME280;4749;51.398;5.466;2023-11-18T06:38:52;102017.97;;;6.02;100.00
9421;BME280;4749;51.398;5.466;2023-11-18T06:41:21;102018.03;;;6.04;100.00
9421;BME280;4749;51.398;5.466;2023-11-18T06:43:53;102031.13;;;6.05;100.00
9421;BME280;4749;51.398;5.466;2023-11-18T06:46:33;102020.78;;;6.07;100.00
9421;BME280;4749;51.398;5.466;2023-11-18T06:49:02;102018.16;;;6.07;100.00
9421;BME280;4749;51.398;5.466;2023-11-18T06:51:37;102013.84;;;6.07;100.00
9421;BME280;4749;51.398;5.466;2023-11-18T06:54:05;102012.09;;;6.08;100.00
9421;BME280;4749;51.398;5.466;2023-11-18T06:56:40;102016.50;;;6.09;100.00
9421;BME280;4749;51.398;5.466;2023-11-18T06:59:12;102015.66;;;6.10;100.00
9421;BME280;4749;51.398;5.466;2023-11-18T07:01:41;102007.00;;;6.11;100.00
9421;BME280;4749;51.398;5.466;2023-11-18T07:04:13;101990.38;;;6.09;100.00
9421;BME280;4749;51.398;5.466;2023-11-18T07:06:42;102000.06;;;6.11;100.00
9421;BME280;4749;51.398;5.466;2023-11-18T07:09:12;102013.16;;;6.13;100.00
9421;BME280;4749;51.398;5.466;2023-11-18T07:11:41;102010.69;;;6.16;100.00
9421;BME280;4749;51.398;5.466;2023-11-18T07:14:12;102000.28;;;6.17;100.00
9421;BME280;4749;51.398;5.466;2023-11-18T07:16:42;101996.84;;;6.18;100.00
9421;BME280;4749;51.398;5.466;2023-11-18T07:19:10;101996.91;;;6.20;100.00
9421;BME280;4749;51.398;5.466;2023-11-18T07:21:44;102003.00;;;6.20;100.00
9421;BME280;4749;51.398;5.466;2023-11-18T07:24:11;102009.25;;;6.24;100.00
9421;BME280;4749;51.398;5.466;2023-11-18T07:26:39;101997.09;;;6.25;100.00
9421;BME280;4749;51.398;5.466;2023-11-18T07:29:06;102003.31;;;6.28;100.00
9421;BME280;4749;51.398;5.466;2023-11-18T07:31:36;102005.09;;;6.29;100.00
9421;BME280;4749;51.398;5.466;2023-11-18T07:34:04;102003.50;;;6.33;100.00
9421;BME280;4749;51.398;5.466;2023-11-18T07:36:33;101997.50;;;6.35;100.00
9421;BME280;4749;51.398;5.466;2023-11-18T07:39:03;101993.34;;;6.40;100.00
9421;BME280;4749;51.398;5.466;2023-11-18T07:41:33;101999.56;;;6.44;100.00
9421;BME280;4749;51.398;5.466;2023-11-18T07:44:01;102008.34;;;6.46;100.00
9421;BME280;4749;51.398;5.466;2023-11-18T07:46:29;102005.03;;;6.50;100.00
9421;BME280;4749;51.398;5.466;2023-11-18T07:48:58;102007.75;;;6.53;100.00
9421;BME280;4749;51.398;5.466;2023-11-18T07:51:28;102020.13;;;6.57;100.00
9421;BME280;4749;51.398;5.466;2023-11-18T07:53:56;102019.44;;;6.63;100.00
9421;BME280;4749;51.398;5.466;2023-11-18T07:56:23;102022.53;;;6.75;100.00
9421;BME280;4749;51.398;5.466;2023-11-18T07:58:50;102016.75;;;6.84;100.00
9421;BME280;4749;51.398;5.466;2023-11-18T08:01:19;102002.81;;;6.85;100.00
9421;BME280;4749;51.398;5.466;2023-11-18T08:03:48;102003.72;;;6.85;100.00
9421;BME280;4749;51.398;5.466;2023-11-18T08:06:18;102004.56;;;6.84;100.00
9421;BME280;4749;51.398;5.466;2023-11-18T08:08:45;102008.00;;;6.83;100.00
9421;BME280;4749;51.398;5.466;2023-11-18T08:11:14;102005.44;;;6.85;100.00
9421;BME280;4749;51.398;5.466;2023-11-18T08:13:41;102015.06;;;6.86;100.00
9421;BME280;4749;51.398;5.466;2023-11-18T08:16:10;102012.50;;;6.87;100.00
9421;BME280;4749;51.398;5.466;2023-11-18T08:18:39;102017.91;;;6.92;100.00
9421;BME280;4749;51.398;5.466;2023-11-18T08:21:07;102007.50;;;6.93;100.00
9421;BME280;4749;51.398;5.466;2023-11-18T08:23:35;102002.44;;;6.98;100.00
9421;BME280;4749;51.398;5.466;2023-11-18T08:26:03;101999.03;;;7.00;100.00
9421;BME280;4749;51.398;5.466;2023-11-18T08:28:32;101996.47;;;7.02;100.00
9421;BME280;4749;51.398;5.466;2023-11-18T08:30:59;102000.91;;;7.04;100.00
9421;BME280;4749;51.398;5.466;2023-11-18T08:33:28;101987.84;;;7.04;100.00
9421;BME280;4749;51.398;5.466;2023-11-18T08:35:56;101999.41;;;7.11;100.00
9421;BME280;4749;51.398;5.466;2023-11-18T08:38:23;101990.72;;;7.12;100.00
9421;BME280;4749;51.398;5.466;2023-11-18T08:40:51;101988.25;;;7.15;100.00
9421;BME280;4749;51.398;5.466;2023-11-18T08:43:19;101986.44;;;7.14;100.00
9421;BME280;4749;51.398;5.466;2023-11-18T08:45:48;101986.56;;;7.17;100.00
9421;BME280;4749;51.398;5.466;2023-11-18T08:48:17;101976.03;;;7.16;100.00
9421;BME280;4749;51.398;5.466;2023-11-18T08:50:45;101987.41;;;7.16;100.00
9421;BME280;4749;51.398;5.466;2023-11-18T08:53:14;101981.38;;;7.19;100.00
9421;BME280;4749;51.398;5.466;2023-11-18T08:55:45;101977.97;;;7.21;100.00
9421;BME280;4749;51.398;5.466;2023-11-18T08:58:18;101953.66;;;7.24;100.00
9421;BME280;4749;51.398;5.466;2023-11-18T09:00:52;101949.38;;;7.26;100.00
9421;BME280;4749;51.398;5.466;2023-11-18T09:03:24;101956.31;;;7.25;100.00
9421;BME280;4749;51.398;5.466;2023-11-18T09:05:58;101951.97;;;7.26;100.00
9421;BME280;4749;51.398;5.466;2023-11-18T09:11:07;101959.81;;;7.26;100.00
9421;BME280;4749;51.398;5.466;2023-11-18T09:13:35;101960.75;;;7.28;100.00
9421;BME280;4749;51.398;5.466;2023-11-18T09:16:05;101958.31;;;7.32;100.00
9421;BME280;4749;51.398;5.466;2023-11-18T09:18:40;101947.09;;;7.37;100.00
9421;BME280;4749;51.398;5.466;2023-11-18T09:21:11;101932.41;;;7.40;100.00
9421;BME280;4749;51.398;5.466;2023-11-18T09:23:43;101927.22;;;7.42;100.00
9421;BME280;4749;51.398;5.466;2023-11-18T09:26:11;101924.69;;;7.45;100.00
9421;BME280;4749;51.398;5.466;2023-11-18T09:28:38;101920.47;;;7.48;100.00
9421;BME280;4749;51.398;5.466;2023-11-18T09:31:06;101921.47;;;7.53;100.00
9421;BME280;4749;51.398;5.466;2023-11-18T09:33:40;101916.44;;;7.59;100.00
9421;BME280;4749;51.398;5.466;2023-11-18T09:36:12;101903.50;;;7.64;100.00
9421;BME280;4749;51.398;5.466;2023-11-18T09:38:40;101907.16;;;7.69;100.00
9421;BME280;4749;51.398;5.466;2023-11-18T09:41:10;101898.53;;;7.73;100.00
9421;BME280;4749;51.398;5.466;2023-11-18T09:43:45;101889.88;;;7.74;100.00
9421;BME280;4749;51.398;5.466;2023-11-18T09:46:15;101877.72;;;7.76;100.00
9421;BME280;4749;51.398;5.466;2023-11-18T09:48:47;101871.72;;;7.80;100.00
9421;BME280;4749;51.398;5.466;2023-11-18T09:51:22;101874.44;;;7.83;100.00
9421;BME280;4749;51.398;5.466;2023-11-18T09:53:52;101873.63;;;7.86;100.00
9421;BME280;4749;51.398;5.466;2023-11-18T09:56:49;101876.41;;;7.90;100.00
9421;BME280;4749;51.398;5.466;2023-11-18T09:59:33;101880.00;;;7.94;100.00
9421;BME280;4749;51.398;5.466;2023-11-18T10:02:13;101879.31;;;8.00;100.00
9421;BME280;4749;51.398;5.466;2023-11-18T10:04:41;101863.81;;;8.07;100.00
9421;BME280;4749;51.398;5.466;2023-11-18T10:07:09;101865.81;;;8.16;100.00
9421;BME280;4749;51.398;5.466;2023-11-18T10:09:38;101863.38;;;8.24;100.00
9421;BME280;4749;51.398;5.466;2023-11-18T10:12:09;101853.94;;;8.29;100.00
9421;BME280;4749;51.398;5.466;2023-11-18T10:14:42;101842.63;;;8.31;100.00
9421;BME280;4749;51.398;5.466;2023-11-18T10:17:11;101840.19;;;8.36;100.00
9421;BME280;4749;51.398;5.466;2023-11-18T10:19:58;101842.00;;;8.38;100.00
9421;BME280;4749;51.398;5.466;2023-11-18T10:22:40;101843.75;;;8.39;100.00
9421;BME280;4749;51.398;5.466;2023-11-18T10:25:08;101845.50;;;8.39;100.00
9421;BME280;4749;51.398;5.466;2023-11-18T10:27:35;101841.16;;;8.39;100.00
9421;BME280;4749;51.398;5.466;2023-11-18T10:30:05;101824.66;;;8.42;100.00
9421;BME280;4749;51.398;5.466;2023-11-18T10:33:04;101812.63;;;8.50;100.00
9421;BME280;4749;51.398;5.466;2023-11-18T10:35:35;101800.63;;;8.58;100.00
9421;BME280;4749;51.398;5.466;2023-11-18T10:38:03;101790.38;;;8.67;100.00
9421;BME280;4749;51.398;5.466;2023-11-18T10:40:34;101794.13;;;8.79;100.00
9421;BME280;4749;51.398;5.466;2023-11-18T10:43:04;101795.94;;;8.81;100.00
9421;BME280;4749;51.398;5.466;2023-11-18T10:45:37;101799.50;;;8.83;100.00
9421;BME280;4749;51.398;5.466;2023-11-18T10:48:11;101799.50;;;8.83;100.00
9421;BME280;4749;51.398;5.466;2023-11-18T10:50:47;101795.28;;;8.90;100.00
9421;BME280;4749;51.398;5.466;2023-11-18T10:53:18;101789.34;;;8.97;100.00
9421;BME280;4749;51.398;5.466;2023-11-18T10:55:46;101778.16;;;9.04;100.00
9421;BME280;4749;51.398;5.466;2023-11-18T10:58:13;101780.91;;;9.10;100.00
9421;BME280;4749;51.398;5.466;2023-11-18T11:00:52;101782.69;;;9.11;100.00
9421;BME280;4749;51.398;5.466;2023-11-18T11:03:27;101774.63;;;9.03;100.00
9421;BME280;4749;51.398;5.466;2023-11-18T11:06:00;101781.56;;;9.00;100.00
9421;BME280;4749;51.398;5.466;2023-11-18T11:08:32;101786.75;;;8.98;100.00
9421;BME280;4749;51.398;5.466;2023-11-18T11:11:08;101780.56;;;8.96;100.00
9421;BME280;4749;51.398;5.466;2023-11-18T11:13:36;101774.50;;;8.99;100.00
9421;BME280;4749;51.398;5.466;2023-11-18T11:16:07;101771.88;;;8.99;100.00
9421;BME280;4749;51.398;5.466;2023-11-18T11:18:40;101759.63;;;8.98;100.00
9421;BME280;4749;51.398;5.466;2023-11-18T11:21:25;101750.91;;;8.99;100.00
9421;BME280;4749;51.398;5.466;2023-11-18T11:24:04;101755.25;;;8.98;100.00
9421;BME280;4749;51.398;5.466;2023-11-18T11:29:38;101732.69;;;9.05;100.00
9421;BME280;4749;51.398;5.466;2023-11-18T11:34:56;101697.88;;;9.12;100.00
9421;BME280;4749;51.398;5.466;2023-11-18T11:37:25;101684.81;;;9.15;100.00
9421;BME280;4749;51.398;5.466;2023-11-18T11:39:55;101685.69;;;9.14;100.00
9421;BME280;4749;51.398;5.466;2023-11-18T11:42:26;101670.78;;;9.12;100.00
9421;BME280;4749;51.398;5.466;2023-11-18T11:44:54;101665.47;;;9.09;100.00
9421;BME280;4749;51.398;5.466;2023-11-18T11:47:23;101651.41;;;9.07;100.00
9421;BME280;4749;51.398;5.466;2023-11-18T11:50:05;101644.31;;;9.01;100.00
9421;BME280;4749;51.398;5.466;2023-11-18T11:52:44;101634.59;;;8.97;100.00
9421;BME280;4749;51.398;5.466;2023-11-18T11:55:36;101629.25;;;8.92;100.00
9421;BME280;4749;51.398;5.466;2023-11-18T12:00:53;101622.34;;;8.96;100.00
9421;BME280;4749;51.398;5.466;2023-11-18T12:03:22;101609.22;;;8.96;100.00
9421;BME280;4749;51.398;5.466;2023-11-18T12:05:54;101593.50;;;8.97;100.00
9421;BME280;4749;51.398;5.466;2023-11-18T12:08:23;101569.03;;;8.97;100.00
9421;BME280;4749;51.398;5.466;2023-11-18T12:10:54;101560.25;;;8.95;100.00
9421;BME280;4749;51.398;5.466;2023-11-18T12:13:23;101563.75;;;8.95;100.00
9421;BME280;4749;51.398;5.466;2023-11-18T12:15:56;101554.16;;;8.97;100.00
9421;BME280;4749;51.398;5.466;2023-11-18T12:18:33;101535.75;;;8.94;100.00
9421;BME280;4749;51.398;5.466;2023-11-18T12:21:04;101536.63;;;8.95;100.00
9421;BME280;4749;51.398;5.466;2023-11-18T12:23:31;101522.66;;;8.94;100.00
9421;BME280;4749;51.398;5.466;2023-11-18T12:26:02;101508.69;;;8.97;100.00
9421;BME280;4749;51.398;5.466;2023-11-18T12:28:51;101507.81;;;8.96;100.00
9421;BME280;4749;51.398;5.466;2023-11-18T12:31:39;101497.31;;;8.95;100.00
9421;BME280;4749;51.398;5.466;2023-11-18T12:34:07;101511.13;;;8.88;100.00
9421;BME280;4749;51.398;5.466;2023-11-18T12:37:01;101519.81;;;8.84;100.00
9421;BME280;4749;51.398;5.466;2023-11-18T12:43:00;101503.13;;;8.82;100.00
9421;BME280;4749;51.398;5.466;2023-11-18T12:46:20;101478.66;;;8.81;100.00
9421;BME280;4749;51.398;5.466;2023-11-18T12:48:57;101463.06;;;8.87;100.00
9421;BME280;4749;51.398;5.466;2023-11-18T12:51:26;101457.03;;;8.91;100.00
9421;BME280;4749;51.398;5.466;2023-11-18T12:53:54;101447.44;;;8.93;100.00
9421;BME280;4749;51.398;5.466;2023-11-18T12:56:23;101436.13;;;8.96;100.00
9421;BME280;4749;51.398;5.466;2023-11-18T12:58:51;101418.66;;;8.96;100.00
9421;BME280;4749;51.398;5.466;2023-11-18T13:01:18;101414.25;;;8.95;100.00
9421;BME280;4749;51.398;5.466;2023-11-18T13:03:46;101410.75;;;8.93;100.00
9421;BME280;4749;51.398;5.466;2023-11-18T13:06:14;101419.47;;;8.92;100.00
9421;BME280;4749;51.398;5.466;2023-11-18T13:08:42;101411.63;;;8.95;100.00
9421;BME280;4749;51.398;5.466;2023-11-18T13:11:09;101395.88;;;8.92;100.00
9421;BME280;4749;51.398;5.466;2023-11-18T13:13:43;101394.91;;;8.89;100.00
9421;BME280;4749;51.398;5.466;2023-11-18T13:16:12;101386.16;;;8.88;100.00
9421;BME280;4749;51.398;5.466;2023-11-18T13:18:45;101384.50;;;8.93;100.00
9421;BME280;4749;51.398;5.466;2023-11-18T13:21:18;101378.44;;;8.96;100.00
9421;BME280;4749;51.398;5.466;2023-11-18T13:23:51;101381.91;;;8.95;100.00
9421;BME280;4749;51.398;5.466;2023-11-18T13:26:20;101374.03;;;8.95;100.00
9421;BME280;4749;51.398;5.466;2023-11-18T13:28:48;101367.06;;;8.95;100.00
9421;BME280;4749;51.398;5.466;2023-11-18T13:31:17;101365.31;;;8.96;100.00
9421;BME280;4749;51.398;5.466;2023-11-18T13:33:46;101358.34;;;8.96;100.00
9421;BME280;4749;51.398;5.466;2023-11-18T13:36:15;101361.81;;;8.95;100.00
9421;BME280;4749;51.398;5.466;2023-11-18T13:38:43;101344.31;;;8.94;100.00
9421;BME280;4749;51.398;5.466;2023-11-18T13:41:11;101338.22;;;8.95;100.00
9421;BME280;4749;51.398;5.466;2023-11-18T13:43:49;101336.47;;;8.96;100.00